Latest Coastal Weather Observations for Cape Nelson

IDV60701

Issued at 4:21 am EDT Saturday 25 February 2017 (issued every 10 minutes, with the page automatically refreshed every 10 minutes)

About coastal observations | Map of coastal stations | Coastal observations for VIC | Marine services | Other Formats
Station Details ID: 090184 Name: CAPE NELSON LIGHTHOUSE Lat: -38.43 Lon: 141.54 Height: 45.4 m
Data from the previous 72 hours. | See also: Recent months at Cape Nelson
Date/Time
EDT
Temp
°C
Wind Pressure Rain since
9am
mm
Weather Cloud Vis
km
Sea
Height
m
Swell
Dir  Spd
kts
Gust
kts
hPa Trend Height
m
Period
s
Dir
25/04:00am 15.1 SE 14 18 1025.7 - 0.0 - - - - - - -
25/03:30am 15.2 SE 12 17 1026.0 - 0.0 - - - - - - -
25/03:00am 15.0 SE 13 19 1026.2 - 0.0 - - - - - - -
25/02:30am 15.3 SE 11 16 1026.4 - 0.0 - - - - - - -
25/02:00am 15.2 SSE 11 15 1026.4 - 0.0 - - - - - - -
25/01:30am 15.5 SSE 8 11 1026.7 - 0.0 - - - - - - -
25/01:00am 15.5 SE 8 12 1026.9 - 0.0 - - - - - - -
25/12:30am 15.5 SE 10 13 1027.1 - 0.0 - - - - - - -
25/12:00am 15.2 SSE 11 14 1027.0 - 0.0 - - - - - - -
 
Date/Time
EDT
Temp
°C
Wind Pressure Rain since
9am
mm
Weather Cloud Vis
km
Sea
Height
m
Swell
Dir  Spd
kts
Gust
kts
hPa Trend Height
m
Period
s
Dir
24/11:30pm 15.6 SE 10 13 1027.1 - 0.0 - - - - - - -
24/11:00pm 15.9 SE 11 16 1027.1 - 0.0 - - - - - - -
24/10:30pm 15.6 SSE 14 17 1027.2 - 0.0 - - - - - - -
24/10:00pm 15.8 SSE 12 15 1027.2 - 0.0 - - - - - - -
24/09:30pm 15.8 SSE 11 15 1027.1 - 0.0 - - - - - - -
24/09:00pm 15.9 SSE 12 15 1026.9 - 0.0 - - - - - - -
24/08:30pm 16.1 S 10 15 1026.7 - 0.0 - - - - - - -
24/08:00pm 16.1 S 11 15 1026.7 - 0.0 - - - - - - -
24/07:30pm 16.3 S 9 12 1026.6 - 0.0 - - - - - - -
24/07:00pm 16.8 S 8 10 1026.5 - 0.0 - - - - - - -
24/06:30pm 17.6 S 8 11 1026.5 - 0.0 - - - - - - -
24/06:00pm 17.7 S 8 11 1026.4 - 0.0 - - - - - - -
24/05:30pm 17.6 S 7 11 1026.4 - 0.0 - - - - - - -
24/05:00pm 17.1 S 8 10 1026.3 - 0.0 - - - - - - -
24/04:30pm 15.8 S 12 17 1026.4 - 0.0 - - - - - - -
24/04:00pm 17.2 S 10 12 1026.3 - 0.0 - - - - - - -
24/03:30pm 18.6 S 9 13 1026.5 - 0.0 - - - - - - -
24/03:00pm 18.2 S 9 13 1026.6 - 0.0 - - - - - - -
24/02:30pm 18.1 S 12 15 1026.7 - 0.0 - - - - - - -
24/02:00pm 17.3 S 11 15 1026.8 - 0.0 - - - - - - -
24/01:30pm 18.2 S 10 13 1026.8 - 0.0 - - - - - - -
24/01:00pm 17.9 S 10 16 1026.9 - 0.0 - - - - - - -
24/12:30pm 17.1 S 11 16 1027.0 - 0.0 - - - - - - -
24/12:00pm 16.8 S 10 15 1027.1 - 0.0 - - - - - - -
24/11:30am 17.0 E 7 12 1026.9 - 0.0 - - - - - - -
24/11:00am 16.5 SSE 8 15 1026.7 - 0.0 - - - - - - -
24/10:30am 16.6 S 7 12 1026.6 - 0.0 - - - - - - -
24/10:00am 16.4 SSE 9 13 1026.3 - 0.0 - - - - - - -
24/09:30am 16.1 SSE 7 15 1026.0 - 0.0 - - - - - - -
24/09:00am 16.0 NE 7 11 1025.6 - 0.4 - - - - - - -
24/08:30am 16.1 SSE 7 11 1025.3 - 0.4 - - - - - - -
24/08:00am 15.8 E 7 12 1025.0 - 0.4 - - - - - - -
24/07:30am 15.7 S 6 10 1024.7 - 0.4 - - - - - - -
24/07:00am 15.7 SE 6 10 1024.3 - 0.4 - - - - - - -
24/06:30am 15.6 SSE 7 12 1024.0 - 0.4 - - - - - - -
24/06:00am 15.7 ESE 6 12 1023.9 - 0.4 - - - - - - -
24/05:30am 15.6 SE 6 13 1023.6 - 0.4 - - - - - - -
24/05:00am 15.7 SE 6 12 1023.6 - 0.4 - - - - - - -
24/04:30am 15.4 SE 6 10 1023.6 - 0.4 - - - - - - -
24/04:00am 15.6 NE 6 9 1023.6 - 0.4 - - - - - - -
24/03:30am 15.4 WNW 6 12 1023.6 - 0.4 - - - - - - -
24/03:00am 15.4 S 5 9 1023.5 - 0.4 - - - - - - -
24/02:30am 15.5 SSW 6 10 1023.6 - 0.4 - - - - - - -
24/02:00am 15.5 SSE 7 11 1023.7 - 0.4 - - - - - - -
24/01:30am 15.5 N 4 6 1023.8 - 0.4 - - - - - - -
24/01:00am 15.4 N 5 9 1024.1 - 0.4 - - - - - - -
24/12:30am 15.6 S 8 13 1024.1 - 0.4 - - - - - - -
24/12:00am 15.6 NE 7 11 1024.0 - 0.4 - - - - - - -
 
Date/Time
EDT
Temp
°C
Wind Pressure Rain since
9am
mm
Weather Cloud Vis
km
Sea
Height
m
Swell
Dir  Spd
kts
Gust
kts
hPa Trend Height
m
Period
s
Dir
23/11:30pm 15.4 ESE 6 10 1023.8 - 0.4 - - - - - - -
23/11:00pm 15.6 SE 7 11 1023.9 - 0.4 - - - - - - -
23/10:30pm 15.6 SSE 7 11 1023.9 - 0.4 - - - - - - -
23/10:00pm 15.7 SSE 7 13 1023.7 - 0.4 - - - - - - -
23/09:30pm 15.6 ESE 6 11 1023.1 - 0.4 - - - - - - -
23/09:00pm 15.7 ENE 6 9 1022.7 - 0.4 - - - - - - -
23/08:30pm 15.7 ENE 6 11 1022.3 - 0.4 - - - - - - -
23/08:00pm 15.7 ESE 6 13 1021.9 - 0.4 - - - - - - -
23/07:30pm 15.8 E 6 11 1021.6 - 0.4 - - - - - - -
23/07:00pm 16.1 ENE 6 9 1021.4 - 0.4 - - - - - - -
23/06:30pm 16.1 NE 5 9 1021.2 - 0.4 - - - - - - -
23/06:00pm 16.4 NNE 5 10 1021.2 - 0.4 - - - - - - -
23/05:30pm 16.4 NNE 6 9 1020.8 - 0.4 - - - - - - -
23/05:00pm 15.9 N 7 11 1020.6 - 0.4 - - - - - - -
23/04:30pm 15.5 NW 9 14 1020.5 - 0.4 - - - - - - -
23/04:00pm 15.3 W 13 19 1020.2 - 0.4 - - - - - - -
23/03:30pm 15.7 WNW 11 16 1020.2 - 0.2 - - - - - - -
23/03:00pm 16.5 W 12 19 1019.8 - 0.2 Recent precip. - - - - - -
23/02:30pm 16.0 W 11 15 1019.7 - 0.0 - - - - - - -
23/02:00pm 17.4 NNW 8 12 1019.3 - 0.0 - - - - - - -
23/01:30pm 17.6 W 7 12 1019.2 - 0.0 - - - - - - -
23/01:00pm 17.7 N 7 9 1019.0 - 0.0 - - - - - - -
23/12:30pm 17.8 N 8 13 1018.9 - 0.0 - - - - - - -
23/12:00pm 17.3 NE 8 12 1018.7 - 0.0 - - - - - - -
23/11:30am 16.8 NNE 7 11 1018.3 - 0.0 - - - - - - -
23/11:00am 16.7 NNW 9 16 1018.0 - 0.0 - - - - - - -
23/10:30am 16.9 W 14 22 1017.6 - 0.0 - - - - - - -
23/10:00am 16.8 W 19 24 1017.4 - 0.0 - - - - - - -
23/09:30am 16.7 W 20 25 1016.8 - 0.0 - - - - - - -
23/09:00am 16.5 W 21 28 1016.4 - 0.0 - - - - - - -
23/08:30am 17.2 W 17 25 1015.8 - 0.0 - - - - - - -
23/08:17am 17.0 W 15 25 1015.5 - 0.0 - - - - - - -
23/08:00am 17.0 W 16 24 1015.1 - 0.0 - - - - - - -
23/07:30am 16.7 W 19 29 1014.5 - 0.0 - - - - - - -
23/07:06am 16.8 W 17 27 1014.0 - 0.0 - - - - - - -
23/07:00am 16.8 WNW 19 27 1013.8 - 0.0 - - - - - - -
23/06:30am 17.1 W 22 32 1013.0 - 0.0 - - - - - - -
23/06:02am 17.2 W 17 27 1012.6 - 0.0 - - - - - - -
23/06:00am 17.0 W 18 27 1012.5 - 0.0 - - - - - - -
23/05:46am 17.1 W 20 30 1012.3 - 0.0 - - - - - - -
23/05:30am 16.8 W 22 31 1012.1 - 0.0 - - - - - - -
23/05:00am 17.0 WNW 22 32 1011.9 - 0.0 - - - - - - -
23/04:30am 17.1 WNW 22 32 1011.4 - 0.0 - - - - - - -
23/04:14am 16.9 WNW 20 30 1011.3 - 0.0 - - - - - - -
23/04:00am 17.1 WNW 21 30 1011.2 - 0.0 - - - - - - -
23/03:33am 17.1 WNW 21 31 1010.8 - 0.0 - - - - - - -
23/03:30am 17.1 WNW 21 30 1010.8 - 0.0 - - - - - - -
23/03:13am 17.2 WNW 21 31 1010.6 - 0.0 - - - - - - -
23/03:00am 17.3 WNW 22 30 1010.5 - 0.0 - - - - - - -
23/02:30am 17.2 WNW 21 31 1010.5 - 0.0 - - - - - - -
23/02:13am 17.2 WNW 20 30 1010.6 - 0.0 - - - - - - -
23/02:00am 17.4 WNW 20 29 1010.6 - 0.0 - - - - - - -
23/01:35am 17.6 WNW 23 33 1010.7 - 0.0 - - - - - - -
23/01:30am 17.8 NW 24 33 1010.6 - 0.0 - - - - - - -
23/01:08am 17.6 WNW 21 31 1010.5 - 0.0 - - - - - - -
23/01:00am 17.7 NW 23 31 1010.4 - 0.0 - - - - - - -
23/12:36am 17.8 NW 22 32 1010.1 - 0.0 - - - - - - -
23/12:30am 17.9 NW 22 29 1010.0 - 0.0 - - - - - - -
23/12:07am 18.1 WNW 24 35 1010.1 - 0.0 - - - - - - -
23/12:00am 18.2 WNW 24 32 1010.0 - 0.0 - - - - - - -
 
Date/Time
EDT
Temp
°C
Wind Pressure Rain since
9am
mm
Weather Cloud Vis
km
Sea
Height
m
Swell
Dir  Spd
kts
Gust
kts
hPa Trend Height
m
Period
s
Dir
22/11:30pm 18.4 WNW 27 37 1009.9 - 0.0 - - - - - - -
22/11:00pm 18.6 WNW 24 39 1009.9 - 0.0 - - - - - - -
22/10:31pm 19.1 WNW 23 35 1009.7 - 0.0 - - - - - - -
22/10:30pm 19.1 WNW 24 33 1009.6 - 0.0 - - - - - - -
22/10:01pm 19.5 NW 24 34 1009.3 - 0.0 - - - - - - -
22/10:00pm 19.5 NW 25 34 1009.3 - 0.0 - - - - - - -
22/09:47pm 19.2 NW 22 35 1009.2 - 0.0 - - - - - - -
22/09:30pm 19.4 NW 20 27 1009.0 - 0.0 - - - - - - -
22/09:03pm 19.6 NW 21 31 1008.6 - 0.0 - - - - - - -
22/09:00pm 19.6 NW 20 29 1008.5 - 0.0 - - - - - - -
22/08:30pm 19.4 WNW 18 28 1007.9 - 0.0 - - - - - - -
22/08:15pm 19.5 WNW 19 29 1007.5 - 0.0 - - - - - - -
22/08:00pm 20.1 WNW 21 28 1007.0 - 0.0 - - - - - - -
22/07:30pm 19.7 WNW 23 30 1006.9 - 0.0 - - - - - - -
22/07:00pm 19.4 WNW 20 27 1007.5 - 0.0 - - - - - - -
22/06:49pm 19.1 WNW 20 30 1007.4 - 0.0 - - - - - - -
22/06:30pm 19.2 WNW 23 30 1007.2 - 0.0 - - - - - - -
22/06:00pm 19.3 WNW 24 35 1007.0 - 0.0 - - - - - - -
22/05:47pm 19.3 WNW 22 34 1006.9 - 0.0 - - - - - - -
22/05:30pm 19.7 WNW 20 29 1006.7 - 0.0 - - - - - - -
22/05:00pm 20.2 WNW 17 24 1006.1 - 0.0 - - - - - - -
22/04:30pm 21.3 WNW 12 17 1006.0 - 0.0 - - - - - - -
22/04:00pm 22.3 WNW 13 19 1006.1 - 0.0 - - - - - - -
22/03:30pm 24.5 WNW 15 23 1006.0 - 0.0 - - - - - - -
22/03:09pm 25.3 W 16 26 1005.4 - 0.0 - - - - - - -
22/03:00pm 30.7 NW 19 29 1005.3 - 0.0 - - - - - - -
22/02:30pm 33.8 NNW 17 28 1005.6 - 0.0 - - - - - - -
22/02:01pm 32.7 N 16 26 1006.0 - 0.0 - - - - - - -
22/02:00pm 32.7 N 16 24 1006.0 - 0.0 - - - - - - -
22/01:30pm 31.7 N 18 28 1006.6 - 0.0 - - - - - - -
22/01:06pm 29.0 N 16 27 1007.2 - 0.0 - - - - - - -
22/01:00pm 28.8 N 15 22 1007.4 - 0.0 - - - - - - -
22/12:30pm 28.8 N 19 29 1007.7 - 0.0 - - - - - - -
22/12:00pm 29.0 N 20 33 1007.9 - 0.0 - - - - - - -
22/11:31am 28.8 N 18 28 1008.0 - 0.0 - - - - - - -
22/11:30am 28.7 N 19 28 1007.9 - 0.0 - - - - - - -
22/11:00am 27.5 N 17 27 1008.5 - 0.0 - - - - - - -
22/10:33am 25.8 N 15 25 1009.1 - 0.0 - - - - - - -
22/10:30am 25.4 N 15 22 1009.2 - 0.0 - - - - - - -
22/10:00am 22.8 N 18 30 1009.3 - 0.0 - - - - - - -
22/09:37am 22.2 N 19 29 1009.4 - 0.0 - - - - - - -
22/09:30am 21.8 N 19 26 1009.6 - 0.0 - - - - - - -
22/09:03am 20.9 N 19 29 1009.9 - 0.0 - - - - - - -
22/09:00am 21.1 N 19 27 1009.9 - 0.0 - - - - - - -
22/08:30am 19.2 N 16 22 1010.1 - 0.0 - - - - - - -
22/08:00am 17.9 N 17 25 1010.1 - 0.0 - - - - - - -
22/07:30am 16.9 N 18 26 1009.9 - 0.0 - - - - - - -
22/07:00am 16.9 N 16 23 1010.2 - 0.0 - - - - - - -
22/06:30am 17.2 NNE 14 21 1010.4 - 0.0 - - - - - - -
22/06:00am 16.9 NNE 14 21 1010.6 - 0.0 - - - - - - -
22/05:30am 15.9 NNE 11 17 1011.0 - 0.0 - - - - - - -
22/05:00am 15.4 NNE 12 15 1011.2 - 0.0 - - - - - - -
22/04:30am 14.8 NNE 11 14 1011.3 - 0.0 - - - - - - -

Other Formats:

Comma delimited format used in spreadsheet applications
http://www.bom.gov.au/fwo/IDV60701/IDV60701.94826.axf

JavaScript Object Notation format (JSON) in row-major order
http://www.bom.gov.au/fwo/IDV60701/IDV60701.94826.json